PST,Max TemperatureF,Mean TemperatureF,Min TemperatureF,Max Dew PointF,MeanDew PointF,Min DewpointF,Max Humidity, Mean Humidity, Min Humidity, Max Sea Level PressureIn, Mean Sea Level PressureIn, Min Sea Level PressureIn, Max VisibilityMiles, Mean VisibilityMiles, Min VisibilityMiles, Max Wind SpeedMPH, Mean Wind SpeedMPH, Max Gust SpeedMPH,PrecipitationIn, CloudCover, Events, WindDirDegrees
2012-11-1,56,46,35,45,40,32,89,80,51,30.15,30.04,29.94,10,10,8,8,1,15,0.02,3,Rain,110
2012-11-2,57,46,34,41,37,30,92,75,47,30.19,30.15,30.12,10,10,5,5,0,13,0.00,4,,-1
2012-11-3,65,50,35,42,38,33,85,68,44,30.33,30.24,30.15,10,10,8,6,1,10,0.00,2,,60
2012-11-4,68,54,39,47,42,36,86,73,45,30.45,30.40,30.33,10,10,10,9,2,16,0.00,0,,66
2012-11-5,69,55,40,48,42,36,89,72,44,30.45,30.35,30.26,10,10,10,9,3,16,0.00,0,,22
2012-11-6,72,54,36,44,39,33,85,67,35,30.26,30.19,30.13,10,10,7,7,0,16,0.00,0,,-1
2012-11-7,65,51,37,45,39,33,85,71,44,30.14,30.03,29.88,10,10,7,8,2,15,0.00,0,,60
2012-11-8,42,36,30,34,29,27,85,79,59,29.86,29.79,29.70,10,7,1,10,2,20,0.02,7,Snow,30
2012-11-9,42,33,24,28,25,20,85,77,54,29.97,29.89,29.77,10,8,2,7,0,10,T,6,Snow,50
2012-11-10,44,33,22,27,20,16,88,63,33,30.32,30.10,29.85,10,9,3,12,3,14,T,4,,341
2012-11-11,43,31,19,25,22,14,84,66,49,30.45,30.41,30.32,10,9,5,6,0,16,0.00,4,,140
2012-11-12,50,41,32,32,28,24,82,64,45,30.43,30.39,30.34,10,9,5,7,1,16,T,5,,165
2012-11-13,53,42,31,39,36,29,92,79,61,30.35,30.27,30.22,10,9,5,6,0,13,T,7,,50
2012-11-14,59,45,31,40,34,29,89,75,47,30.29,30.23,30.18,10,8,3,6,1,9,0.00,1,,300
2012-11-15,61,45,28,37,31,24,85,74,36,30.18,30.11,30.01,10,8,2,5,1,10,0.00,0,,140
2012-11-16,50,47,43,40,37,33,89,75,56,30.07,30.00,29.90,10,6,2,7,1,16,0.07,7,Rain,126
2012-11-17,48,40,31,44,38,29,96,88,79,30.00,29.83,29.70,10,7,2,9,2,22,1.16,7,Rain,118
2012-11-18,41,36,30,34,31,26,92,86,64,30.19,30.05,29.93,10,7,0,8,2,17,0.15,7,Fog-Rain,116
2012-11-19,46,42,38,41,38,34,89,86,79,30.20,30.12,30.03,10,8,4,13,5,31,0.62,8,Rain,112
2012-11-20,51,48,44,45,42,36,92,85,56,30.07,29.94,29.87,10,6,1,13,3,39,1.24,8,Rain,108
2012-11-21,50,40,29,41,34,25,89,76,42,30.35,30.10,29.87,10,9,4,7,0,18,0.16,4,Rain,70
2012-11-22,49,38,27,32,28,23,89,75,49,30.43,30.39,30.36,10,9,5,9,2,17,0.00,0,,307
2012-11-23,58,44,30,37,31,27,92,76,46,30.45,30.38,30.29,10,8,2,9,1,15,0.00,0,,22
2012-11-24,62,46,30,41,34,26,85,72,47,30.36,30.25,30.12,10,9,3,9,2,16,0.00,0,,31
2012-11-25,59,47,35,41,36,31,92,77,51,30.17,30.11,30.04,10,9,4,7,1,12,0.00,1,,12
2012-11-26,57,44,30,37,31,26,85,72,43,30.19,30.14,30.09,10,9,3,7,1,16,0.00,0,,102
2012-11-27,55,43,31,35,32,27,85,65,45,30.19,30.13,30.04,10,10,10,6,0,13,0.00,1,,-1
2012-11-28,46,44,42,41,39,35,89,83,65,30.01,29.88,29.82,10,6,2,10,4,26,1.13,8,Rain,124
2012-11-29,49,46,42,45,40,37,92,86,76,29.99,29.79,29.61,10,4,1,10,5,36,3.89,8,Rain,126
2012-11-30,52,47,42,45,41,38,93,82,66,29.83,29.72,29.59,10,8,2,12,2,21,0.70,7,Rain,114